createdAt,value
2022-08-30T00:01:14.252Z,51317.00
2022-08-30T00:03:46.752Z,51332.91
2022-08-30T00:06:17.745Z,51344.84
2022-08-30T00:08:45.790Z,51354.78
2022-08-30T00:11:17.919Z,51338.88
2022-08-30T00:13:47.540Z,51330.94
2022-08-30T00:16:15.278Z,51352.78
2022-08-30T00:18:44.011Z,51328.94
2022-08-30T00:21:11.929Z,51322.97
2022-08-30T00:23:40.441Z,51324.97
2022-08-30T00:26:08.215Z,51321.00
2022-08-30T00:28:36.242Z,51350.81
2022-08-30T00:31:05.001Z,51317.00
2022-08-30T00:33:32.295Z,51328.94
2022-08-30T00:35:59.639Z,51336.91
2022-08-30T00:38:26.820Z,51332.91
2022-08-30T00:40:54.091Z,51376.66
2022-08-30T00:43:30.569Z,51332.91
2022-08-30T00:45:59.248Z,51283.22
2022-08-30T00:48:26.596Z,51309.06
2022-08-30T00:51:00.884Z,51344.84
2022-08-30T00:53:34.906Z,51321.00
2022-08-30T00:56:03.197Z,51336.91
2022-08-30T00:58:36.836Z,51332.91
2022-08-30T01:01:06.826Z,51330.94
2022-08-30T01:03:37.364Z,51319.00
2022-08-30T01:06:07.623Z,51305.09
2022-08-30T01:08:35.639Z,51319.00
2022-08-30T01:11:04.360Z,51317.00
2022-08-30T01:13:34.178Z,51317.00
2022-08-30T01:16:03.079Z,51330.94
2022-08-30T01:18:32.197Z,51307.06
2022-08-30T01:21:15.645Z,51322.97
2022-08-30T01:23:46.476Z,51330.94
2022-08-30T01:29:11.561Z,51340.88
2022-08-30T01:31:38.836Z,51360.75
2022-08-30T01:34:08.035Z,51328.94
2022-08-30T01:36:45.040Z,51303.09
2022-08-30T01:39:17.931Z,51321.00
2022-08-30T01:41:45.773Z,51324.97
2022-08-30T01:44:14.686Z,51313.03
2022-08-30T01:46:46.795Z,51307.06
2022-08-30T01:49:27.299Z,51344.84
2022-08-30T01:52:00.595Z,51319.00
2022-08-30T01:54:37.924Z,51303.09
2022-08-30T01:57:08.266Z,51321.00
2022-08-30T01:59:36.827Z,51307.06
2022-08-30T02:02:06.017Z,51309.06
2022-08-30T02:04:33.450Z,51319.00
2022-08-30T02:07:00.740Z,51342.84
2022-08-30T02:09:28.036Z,51332.91
2022-08-30T02:11:55.161Z,51311.06
2022-08-30T02:14:22.284Z,51321.00
2022-08-30T02:16:49.968Z,51330.94
2022-08-30T02:19:18.170Z,51344.84
2022-08-30T02:21:45.286Z,51330.94
2022-08-30T02:24:12.583Z,51322.97
2022-08-30T02:26:39.735Z,51321.00
2022-08-30T02:29:06.937Z,51334.91
2022-08-30T02:31:34.693Z,51321.00
2022-08-30T02:34:02.246Z,51317.00
2022-08-30T02:36:29.367Z,51342.84
2022-08-30T02:38:56.681Z,51311.06
2022-08-30T02:41:24.320Z,51321.00
2022-08-30T02:43:52.317Z,51348.81
2022-08-30T02:46:19.830Z,51315.03
2022-08-30T02:48:46.974Z,51295.16
2022-08-30T02:51:14.665Z,51295.16
2022-08-30T02:53:44.159Z,51324.97
2022-08-30T02:56:13.954Z,51326.94
2022-08-30T02:58:42.967Z,51324.97
2022-08-30T03:01:13.803Z,51328.94
2022-08-30T03:03:43.479Z,51322.97
2022-08-30T03:06:10.838Z,51344.84
2022-08-30T03:08:38.253Z,51287.19
2022-08-30T03:11:06.285Z,51326.94
2022-08-30T03:13:33.377Z,51326.94
2022-08-30T03:16:00.538Z,51332.91
2022-08-30T03:18:28.402Z,51328.94
2022-08-30T03:20:55.596Z,51321.00
2022-08-30T03:23:23.929Z,51328.94
2022-08-30T03:25:53.521Z,51338.88
2022-08-30T03:28:21.006Z,51322.97
2022-08-30T03:30:48.511Z,51311.06
2022-08-30T03:33:16.065Z,51317.00
2022-08-30T03:35:45.753Z,51348.81
2022-08-30T03:38:12.903Z,51356.78
2022-08-30T03:40:40.076Z,51328.94
2022-08-30T03:43:07.616Z,51346.84
2022-08-30T03:45:35.807Z,51313.03
2022-08-30T03:48:03.635Z,51330.94
2022-08-30T03:50:31.417Z,51372.69
2022-08-30T03:53:01.095Z,51334.91
2022-08-30T03:55:29.997Z,51340.88
2022-08-30T03:57:57.736Z,51328.94
2022-08-30T04:00:25.984Z,51321.00
2022-08-30T04:02:53.073Z,51305.09
2022-08-30T04:05:20.809Z,51330.94
2022-08-30T04:07:48.024Z,51319.00
2022-08-30T04:10:15.140Z,51322.97
2022-08-30T04:12:46.179Z,51301.09
2022-08-30T04:15:18.467Z,51305.09
2022-08-30T04:17:46.515Z,51334.91
2022-08-30T04:20:13.723Z,51285.19
2022-08-30T04:22:42.267Z,51340.88
2022-08-30T04:25:15.267Z,51317.00
2022-08-30T04:27:45.398Z,51324.97
2022-08-30T04:30:14.880Z,51356.78
2022-08-30T04:32:42.498Z,51336.91
2022-08-30T04:35:10.584Z,51305.09
2022-08-30T04:37:39.409Z,51285.19
2022-08-30T04:40:07.790Z,51362.75
2022-08-30T04:42:36.070Z,51321.00
2022-08-30T04:45:08.722Z,51332.91
2022-08-30T04:47:36.112Z,51360.75
2022-08-30T04:50:03.782Z,51354.78
2022-08-30T04:52:30.889Z,51352.78
2022-08-30T04:54:59.461Z,51350.81
2022-08-30T04:57:28.302Z,51313.03
2022-08-30T04:59:55.551Z,51340.88
2022-08-30T05:02:23.077Z,51354.78
2022-08-30T05:05:09.299Z,51328.94
2022-08-30T05:07:36.657Z,51354.78
2022-08-30T05:10:09.138Z,51352.78
2022-08-30T05:12:38.729Z,51336.91
2022-08-30T05:15:07.179Z,51332.91
2022-08-30T05:17:34.319Z,51340.88
2022-08-30T05:20:02.538Z,51346.84
2022-08-30T05:22:29.729Z,51342.84
2022-08-30T05:24:56.943Z,51336.91
2022-08-30T05:27:24.387Z,51350.81
2022-08-30T05:29:51.586Z,51356.78
2022-08-30T05:32:21.736Z,51342.84
2022-08-30T05:34:51.335Z,51372.69
2022-08-30T05:37:18.641Z,51348.81
2022-08-30T05:39:51.611Z,51340.88
2022-08-30T05:42:19.809Z,51346.84
2022-08-30T05:44:52.156Z,51362.75
2022-08-30T05:47:20.599Z,51386.59
2022-08-30T05:49:48.427Z,51372.69
2022-08-30T05:52:18.142Z,51354.78
2022-08-30T05:54:46.736Z,51346.84
2022-08-30T05:57:13.894Z,51374.66
2022-08-30T05:59:41.216Z,51398.53
2022-08-30T06:02:08.679Z,51376.66
2022-08-30T06:04:38.965Z,51408.47
2022-08-30T06:07:07.311Z,51376.66
2022-08-30T06:09:35.140Z,51384.59
2022-08-30T06:12:02.680Z,51388.59
2022-08-30T06:14:29.811Z,51420.41
2022-08-30T06:16:58.600Z,51428.34
2022-08-30T06:19:25.705Z,51396.53
2022-08-30T06:21:52.959Z,51406.47
2022-08-30T06:24:27.802Z,51420.41
2022-08-30T06:27:03.338Z,51462.16
2022-08-30T06:29:30.514Z,51394.53
2022-08-30T06:31:59.073Z,51406.47
2022-08-30T06:34:27.163Z,51428.34
2022-08-30T06:36:54.454Z,51422.38
2022-08-30T06:39:21.687Z,51432.31
2022-08-30T06:41:50.282Z,51422.38
2022-08-30T06:44:33.457Z,51426.34
2022-08-30T06:47:00.753Z,51434.31
2022-08-30T06:49:27.977Z,51384.59
2022-08-30T06:51:55.292Z,51416.41
2022-08-30T06:54:22.881Z,51408.47
2022-08-30T06:56:58.213Z,51428.34
2022-08-30T06:59:27.172Z,51438.28
2022-08-30T07:01:55.727Z,51444.25
2022-08-30T07:04:23.509Z,51456.19
2022-08-30T07:06:50.651Z,51468.09
2022-08-30T07:09:19.152Z,51476.06
2022-08-30T07:11:46.427Z,51460.16
2022-08-30T07:14:13.566Z,51464.13
2022-08-30T07:16:40.700Z,51456.19
2022-08-30T07:19:07.849Z,51448.22
2022-08-30T07:21:45.758Z,51486.00
2022-08-30T07:24:13.677Z,51476.06
2022-08-30T07:26:49.203Z,51464.13
2022-08-30T07:29:18.333Z,51491.97
2022-08-30T07:31:46.093Z,51486.00
2022-08-30T07:34:13.396Z,51464.13
2022-08-30T07:36:40.512Z,51478.03
2022-08-30T07:39:08.381Z,51474.06
2022-08-30T07:41:39.044Z,51499.91
2022-08-30T07:44:09.624Z,51499.91
2022-08-30T07:46:39.406Z,51499.91
2022-08-30T07:49:11.006Z,51517.81
2022-08-30T07:51:39.954Z,51495.94
2022-08-30T07:54:07.147Z,51488.00
2022-08-30T07:56:35.231Z,51523.78
2022-08-30T07:59:02.416Z,51507.88
2022-08-30T08:01:29.667Z,51517.81
2022-08-30T08:03:56.973Z,51519.81
2022-08-30T08:06:25.044Z,51523.78
2022-08-30T08:08:54.448Z,51547.63
2022-08-30T08:11:28.356Z,51531.72
2022-08-30T08:13:57.833Z,51507.88
2022-08-30T08:16:29.203Z,51531.72
2022-08-30T08:18:56.815Z,51553.59
2022-08-30T08:21:25.712Z,51531.72
2022-08-30T08:23:53.253Z,51545.66
2022-08-30T08:26:22.108Z,51535.69
2022-08-30T08:28:49.692Z,51525.75
2022-08-30T08:31:25.455Z,51551.63
2022-08-30T08:36:26.821Z,51531.72
2022-08-30T08:38:54.241Z,51545.66
2022-08-30T08:41:39.450Z,51565.53
2022-08-30T08:44:34.821Z,51541.66
2022-08-30T08:47:41.883Z,51567.50
2022-08-30T08:50:18.884Z,51567.50
2022-08-30T08:53:20.527Z,51583.41
2022-08-30T08:55:58.665Z,51575.47
2022-08-30T08:58:35.147Z,51535.69
2022-08-30T09:01:02.270Z,51551.63
2022-08-30T09:03:30.157Z,51583.41
2022-08-30T09:05:59.119Z,51611.25
2022-08-30T09:08:27.370Z,51595.34
2022-08-30T09:11:09.544Z,51593.38
2022-08-30T09:13:36.843Z,51591.38
2022-08-30T09:16:05.591Z,51633.13
2022-08-30T09:18:50.235Z,51595.34
2022-08-30T09:21:26.621Z,51577.47
2022-08-30T09:24:01.976Z,51615.22
2022-08-30T09:26:37.529Z,51617.22
2022-08-30T09:29:06.067Z,51607.28
2022-08-30T09:31:52.881Z,51664.94
2022-08-30T09:34:33.517Z,51615.22
2022-08-30T09:37:00.919Z,51631.13
2022-08-30T09:39:37.385Z,51639.09
2022-08-30T09:42:25.454Z,51649.03
2022-08-30T09:45:10.300Z,51623.19
2022-08-30T09:47:43.448Z,51631.13
2022-08-30T09:50:34.273Z,51649.03
2022-08-30T09:53:23.428Z,51605.28
2022-08-30T09:56:33.188Z,51579.44
2022-08-30T09:59:36.435Z,51609.28
2022-08-30T10:02:48.149Z,51617.22
2022-08-30T10:05:39.581Z,51627.16
2022-08-30T10:08:19.976Z,51639.09
2022-08-30T10:11:09.203Z,51641.09
2022-08-30T10:13:44.273Z,51647.03
2022-08-30T10:16:49.428Z,51662.94
2022-08-30T10:20:04.191Z,51668.91
2022-08-30T10:22:44.090Z,51680.84
2022-08-30T10:25:23.729Z,51637.09
2022-08-30T10:28:17.669Z,51613.25
2022-08-30T10:30:57.519Z,51655.00
2022-08-30T10:33:38.919Z,51655.00
2022-08-30T10:36:12.258Z,51680.84
2022-08-30T10:38:52.603Z,51678.84
2022-08-30T10:41:31.527Z,51684.81
2022-08-30T10:44:07.267Z,51718.63
2022-08-30T10:47:07.069Z,51690.78
2022-08-30T10:49:49.542Z,51724.59
2022-08-30T10:52:37.455Z,51732.53
2022-08-30T10:55:26.838Z,51734.53
2022-08-30T10:57:54.146Z,51794.19
2022-08-30T11:00:37.963Z,51752.41
2022-08-30T11:03:39.780Z,51738.50
2022-08-30T11:06:54.861Z,51760.38
2022-08-30T11:09:51.646Z,51718.63
2022-08-30T11:12:49.961Z,51718.63
2022-08-30T11:15:24.739Z,51762.38
2022-08-30T11:18:11.639Z,51764.34
2022-08-30T11:20:42.799Z,51822.00
2022-08-30T11:23:40.037Z,51810.09
2022-08-30T11:26:12.153Z,51826.00
2022-08-30T11:28:47.377Z,51857.81
2022-08-30T11:31:15.819Z,51867.75
2022-08-30T11:33:49.004Z,51949.28
2022-08-30T11:36:37.920Z,51911.50
2022-08-30T11:39:11.072Z,51895.59
2022-08-30T11:41:47.740Z,51927.41
2022-08-30T11:44:21.815Z,52038.75
2022-08-30T11:46:55.723Z,51963.19
2022-08-30T11:49:27.310Z,51965.19
2022-08-30T11:52:41.514Z,52008.94
2022-08-30T11:55:27.110Z,52072.56
2022-08-30T11:58:34.316Z,51967.16
2022-08-30T12:01:49.936Z,51933.38
2022-08-30T12:04:19.842Z,52341.00
2022-08-30T12:07:00.342Z,52657.22
2022-08-30T12:09:28.200Z,52945.63
2022-08-30T12:12:37.900Z,53460.81
2022-08-30T12:15:05.461Z,53834.81
2022-08-30T12:18:30.617Z,54051.69
2022-08-30T12:21:45.007Z,54145.19
2022-08-30T12:24:26.478Z,53816.91
2022-08-30T12:26:54.758Z,53799.00
2022-08-30T12:29:28.838Z,53212.16
2022-08-30T12:32:08.223Z,53188.28
2022-08-30T12:34:41.572Z,52667.16
2022-08-30T12:37:21.327Z,52498.13
2022-08-30T12:39:53.835Z,52225.66
2022-08-30T12:42:30.746Z,52171.97
2022-08-30T12:45:06.246Z,52197.84
2022-08-30T12:47:51.704Z,52374.81
2022-08-30T12:50:25.242Z,52313.16
2022-08-30T12:53:14.116Z,52571.69
2022-08-30T12:56:01.797Z,52991.38
2022-08-30T12:58:43.771Z,52655.22
2022-08-30T13:01:32.519Z,52454.38
2022-08-30T13:04:13.374Z,52259.47
2022-08-30T13:06:50.794Z,52144.13
2022-08-30T13:09:42.626Z,51977.09
2022-08-30T13:12:26.357Z,51941.31
2022-08-30T13:14:53.893Z,51965.19
2022-08-30T13:17:29.309Z,51923.41
2022-08-30T13:20:07.171Z,51899.56
2022-08-30T13:22:40.450Z,51885.66
2022-08-30T13:25:18.508Z,51873.72
2022-08-30T13:28:02.284Z,51849.84
2022-08-30T13:30:35.674Z,51851.84
2022-08-30T13:33:06.210Z,51827.97
2022-08-30T13:35:33.775Z,51835.94
2022-08-30T13:38:04.479Z,51833.94
2022-08-30T13:40:31.730Z,51853.81
2022-08-30T13:43:03.619Z,52000.97
2022-08-30T13:45:46.472Z,52034.78
2022-08-30T13:48:17.287Z,52197.84
2022-08-30T13:50:44.779Z,52579.66
2022-08-30T13:53:12.269Z,52917.78
2022-08-30T13:55:41.747Z,53269.84
2022-08-30T13:58:10.623Z,53291.72
2022-08-30T14:00:41.029Z,52780.53
2022-08-30T14:03:08.294Z,52488.19
2022-08-30T14:08:49.863Z,52442.44
2022-08-30T14:11:22.516Z,52667.16
2022-08-30T14:16:44.206Z,53232.03
2022-08-30T14:19:14.424Z,53333.50
2022-08-30T14:21:43.085Z,53604.03
2022-08-30T14:24:12.800Z,53791.06
2022-08-30T14:26:48.549Z,53934.28
2022-08-30T14:29:24.808Z,53578.19
2022-08-30T14:31:52.834Z,53496.63
2022-08-30T14:34:20.070Z,53914.41
2022-08-30T14:36:47.338Z,53984.03
2022-08-30T14:39:20.056Z,53997.97
2022-08-30T14:41:52.559Z,54252.66
2022-08-30T14:44:22.374Z,54304.38
2022-08-30T14:46:51.032Z,54407.84
2022-08-30T14:49:20.430Z,54469.53
2022-08-30T14:51:48.555Z,54334.22
2022-08-30T14:54:25.707Z,54399.88
2022-08-30T14:56:53.626Z,54590.94
2022-08-30T14:59:21.582Z,54580.97
2022-08-30T15:01:48.715Z,54475.50
2022-08-30T15:04:16.854Z,54314.31
2022-08-30T15:06:47.371Z,54298.41
2022-08-30T15:09:23.252Z,54075.56
2022-08-30T15:11:58.743Z,54318.31
2022-08-30T15:14:26.465Z,54194.94
2022-08-30T15:16:58.269Z,54302.38
2022-08-30T15:19:26.291Z,54519.28
2022-08-30T15:21:53.464Z,54551.13
2022-08-30T15:24:27.658Z,54473.50
2022-08-30T15:27:01.022Z,54244.69
2022-08-30T15:29:31.710Z,54137.25
2022-08-30T15:32:01.045Z,53936.28
2022-08-30T15:34:28.984Z,53230.06
2022-08-30T15:36:57.283Z,53436.94
2022-08-30T15:39:24.798Z,53361.34
2022-08-30T15:41:55.717Z,53588.13
2022-08-30T15:44:24.461Z,53637.88
2022-08-30T15:46:51.760Z,53504.56
2022-08-30T15:49:23.851Z,53102.75
2022-08-30T15:51:53.854Z,52611.47
2022-08-30T15:54:23.660Z,52364.88
2022-08-30T15:56:59.215Z,52277.38
2022-08-30T15:59:31.530Z,52223.69
2022-08-30T16:01:59.332Z,52142.16
2022-08-30T16:04:26.748Z,52100.41
2022-08-30T16:06:54.281Z,52012.91
2022-08-30T16:09:21.774Z,52102.38
2022-08-30T16:11:50.655Z,52235.63
2022-08-30T16:14:18.125Z,52448.41
2022-08-30T16:16:46.486Z,52633.34
2022-08-30T16:19:14.213Z,52553.81
2022-08-30T16:21:43.360Z,52462.31
2022-08-30T16:24:13.620Z,52525.97
2022-08-30T16:26:43.210Z,52478.22
2022-08-30T16:29:14.662Z,52424.53
2022-08-30T16:31:45.922Z,52488.19
2022-08-30T16:34:17.999Z,52285.34
2022-08-30T16:36:46.301Z,52175.97
2022-08-30T16:39:13.930Z,52134.19
2022-08-30T16:41:44.322Z,52002.97
2022-08-30T16:44:12.697Z,51931.38
2022-08-30T16:46:41.277Z,51933.38
2022-08-30T16:49:10.482Z,51895.59
2022-08-30T16:51:38.345Z,51903.53
2022-08-30T16:54:08.613Z,51937.34
2022-08-30T16:56:37.590Z,52028.81
2022-08-30T16:59:10.971Z,52084.50
2022-08-30T17:01:39.078Z,52074.53
2022-08-30T17:04:08.270Z,51997.00
2022-08-30T17:06:36.600Z,51913.47
2022-08-30T17:09:06.432Z,51865.75
2022-08-30T17:11:36.435Z,51804.13
2022-08-30T17:14:04.973Z,51734.53
2022-08-30T17:16:34.257Z,51736.53
2022-08-30T17:19:04.361Z,51716.63
2022-08-30T17:21:32.700Z,51668.91
2022-08-30T17:24:02.316Z,51690.78
2022-08-30T17:26:36.576Z,51629.16
2022-08-30T17:29:05.314Z,51631.13
2022-08-30T17:31:34.582Z,51621.19
2022-08-30T17:34:04.138Z,51619.22
2022-08-30T17:36:35.593Z,51593.38
2022-08-30T17:39:11.379Z,51607.28
2022-08-30T17:41:45.350Z,51577.47
2022-08-30T17:44:23.294Z,51597.34
2022-08-30T17:46:53.787Z,51599.31
2022-08-30T17:49:22.208Z,51573.47
2022-08-30T17:51:56.101Z,51549.63
2022-08-30T17:54:25.822Z,51549.63
2022-08-30T17:56:54.536Z,51525.75
2022-08-30T17:59:25.043Z,51571.50
2022-08-30T18:01:55.398Z,51543.66
2022-08-30T18:04:24.922Z,51535.69
2022-08-30T18:06:53.020Z,51515.81
2022-08-30T18:09:20.445Z,51581.44
2022-08-30T18:11:48.344Z,51525.75
2022-08-30T18:14:15.985Z,51519.81
2022-08-30T18:16:49.921Z,51543.66
2022-08-30T18:19:23.505Z,51503.91
2022-08-30T18:21:50.844Z,51507.88
2022-08-30T18:24:18.353Z,51513.84
2022-08-30T18:26:46.583Z,51491.97
2022-08-30T18:29:13.984Z,51505.88
2022-08-30T18:31:41.438Z,51495.94
2022-08-30T18:34:12.376Z,51495.94
2022-08-30T18:36:41.447Z,51515.81
2022-08-30T18:39:09.031Z,51472.09
2022-08-30T18:41:42.940Z,51472.09
2022-08-30T18:44:26.776Z,51482.03
2022-08-30T18:46:56.100Z,51478.03
2022-08-30T18:49:28.130Z,51454.19
2022-08-30T18:51:55.380Z,51446.25
2022-08-30T18:54:23.589Z,51515.81
2022-08-30T18:56:50.771Z,51491.97
2022-08-30T18:59:19.635Z,51460.16
2022-08-30T19:01:48.562Z,51450.22
2022-08-30T19:04:29.571Z,51468.09
2022-08-30T19:06:59.551Z,51454.19
2022-08-30T19:09:26.866Z,51472.09
2022-08-30T19:11:55.007Z,51474.06
2022-08-30T19:14:22.318Z,51436.28
2022-08-30T19:16:49.478Z,51456.19
2022-08-30T19:19:16.871Z,51448.22
2022-08-30T19:21:44.016Z,51446.25
2022-08-30T19:24:12.030Z,51450.22
2022-08-30T19:26:40.584Z,51484.00
2022-08-30T19:29:07.730Z,51422.38
2022-08-30T19:31:35.290Z,51444.25
2022-08-30T19:34:02.646Z,51422.38
2022-08-30T19:36:30.677Z,51450.22
2022-08-30T19:38:57.837Z,51462.16
2022-08-30T19:41:25.073Z,51434.31
2022-08-30T19:43:52.246Z,51414.44
2022-08-30T19:46:19.360Z,51420.41
2022-08-30T19:48:46.568Z,51408.47
2022-08-30T19:51:15.254Z,51394.53
2022-08-30T19:53:43.035Z,51408.47
2022-08-30T19:56:10.377Z,51420.41
2022-08-30T19:58:37.621Z,51408.47
2022-08-30T20:01:12.768Z,51402.50
2022-08-30T20:03:53.066Z,51362.75
2022-08-30T20:06:23.956Z,51404.50
2022-08-30T20:08:51.118Z,51414.44
2022-08-30T20:11:23.778Z,51468.09
2022-08-30T20:13:50.915Z,51420.41
2022-08-30T20:16:18.576Z,51400.50
2022-08-30T20:18:48.022Z,51390.56
2022-08-30T20:21:15.838Z,51390.56
2022-08-30T20:23:43.785Z,51376.66
2022-08-30T20:26:12.918Z,51380.63
2022-08-30T20:28:40.921Z,51398.53
2022-08-30T20:31:10.908Z,51402.50
2022-08-30T20:33:39.072Z,51386.59
2022-08-30T20:36:09.868Z,51406.47
2022-08-30T20:38:38.066Z,51404.50
2022-08-30T20:41:16.743Z,51398.53
2022-08-30T20:43:45.493Z,51374.66
2022-08-30T20:46:21.787Z,51386.59
2022-08-30T20:48:49.005Z,51394.53
2022-08-30T20:51:20.634Z,51390.56
2022-08-30T20:53:47.720Z,51404.50
2022-08-30T20:56:21.679Z,51404.50
2022-08-30T20:58:50.333Z,51386.59
2022-08-30T21:01:17.902Z,51372.69
2022-08-30T21:03:49.056Z,51394.53
2022-08-30T21:06:17.590Z,51384.59
2022-08-30T21:08:44.785Z,51388.59
2022-08-30T21:11:12.348Z,51402.50
2022-08-30T21:13:39.880Z,51380.63
2022-08-30T21:16:07.977Z,51394.53
2022-08-30T21:18:36.383Z,51392.56
2022-08-30T21:21:22.158Z,51396.53
2022-08-30T21:23:50.194Z,51386.59
2022-08-30T21:26:19.018Z,51408.47
2022-08-30T21:28:52.190Z,51372.69
2022-08-30T21:31:23.984Z,51386.59
2022-08-30T21:33:53.680Z,51406.47
2022-08-30T21:36:40.579Z,51346.84
2022-08-30T21:39:08.211Z,51382.63
2022-08-30T21:41:37.627Z,51374.66
2022-08-30T21:44:08.918Z,51384.59
2022-08-30T21:46:38.522Z,51360.75
2022-08-30T21:49:09.655Z,51356.78
2022-08-30T21:51:42.091Z,51370.69
2022-08-30T21:54:11.863Z,51376.66
2022-08-30T21:56:43.566Z,51380.63
2022-08-30T21:59:11.576Z,51388.59
2022-08-30T22:01:40.365Z,51374.66
2022-08-30T22:04:10.250Z,51372.69
2022-08-30T22:06:40.665Z,51350.81
2022-08-30T22:09:13.979Z,51382.63
2022-08-30T22:11:43.557Z,51360.75
2022-08-30T22:14:13.050Z,51366.72
2022-08-30T22:16:41.539Z,51372.69
2022-08-30T22:19:09.029Z,51348.81
2022-08-30T22:21:38.310Z,51388.59
2022-08-30T22:24:05.955Z,51364.72
2022-08-30T22:26:34.339Z,51366.72
2022-08-30T22:29:02.805Z,51362.75
2022-08-30T22:31:29.962Z,51392.56
2022-08-30T22:33:57.123Z,51362.75
2022-08-30T22:36:32.409Z,51358.75
2022-08-30T22:39:01.792Z,51370.69
2022-08-30T22:41:34.045Z,51370.69
2022-08-30T22:44:02.305Z,51356.78
2022-08-30T22:46:34.615Z,51376.66
2022-08-30T22:49:09.078Z,51384.59
2022-08-30T22:51:37.199Z,51346.84
2022-08-30T22:54:06.336Z,51360.75
2022-08-30T22:56:36.557Z,51358.75
2022-08-30T22:59:05.834Z,51384.59
2022-08-30T23:01:39.772Z,51350.81
2022-08-30T23:04:09.007Z,51380.63
2022-08-30T23:06:36.502Z,51346.84
2022-08-30T23:09:05.370Z,51372.69
2022-08-30T23:11:33.448Z,51350.81
2022-08-30T23:14:02.287Z,51366.72
2022-08-30T23:16:29.867Z,51354.78
2022-08-30T23:18:56.980Z,51360.75
2022-08-30T23:21:28.245Z,51352.78
2022-08-30T23:24:15.388Z,51342.84
2022-08-30T23:27:03.379Z,51344.84
2022-08-30T23:29:49.443Z,51340.88
2022-08-30T23:32:35.932Z,51350.81
2022-08-30T23:35:29.495Z,51354.78
2022-08-30T23:38:22.466Z,51332.91
2022-08-30T23:41:08.264Z,51372.69
2022-08-30T23:43:54.849Z,51344.84
2022-08-30T23:46:41.147Z,51358.75
2022-08-30T23:49:27.547Z,51342.84
2022-08-30T23:52:13.564Z,51346.84
2022-08-30T23:54:58.898Z,51344.84
2022-08-30T23:57:45.866Z,51356.78
